LGKV/KVA METAR and TAF weather

Enter ICAO airport designator
Station Type Date Time Source
LGKV METAR 2020/07/15 07:50 UTC NOAA

LGKV 150750Z 11006KT CAVOK 25/10 Q1015


Station Type Date Time Source
LGKV Decoded METAR 2020/07/15 07:50 UTC NOAA

Chrysoupoli Airport , Greece (LGKV) 40-59N 024-36E 5M
Jul 15, 2020 - 03:50 AM EDT / 2020.07.15 0750 UTC
Wind: from the ESE (110 degrees) at 7 MPH (6 KT):0
Visibility: greater than 7 mile(s):0
Temperature: 77 F (25 C)
Dew Point: 50 F (10 C)
Relative Humidity: 38%
Pressure (altimeter): 29.97 in. Hg (1015 hPa)
ob: LGKV 150750Z 11006KT CAVOK 25/10 Q1015
cycle: 8

Station Type Date Time Source
LGKV TAF 2020/07/15 05:12 UTC NOAA

TAF LGKV 150500Z 1505/1606 VRB05KT 9999 FEW030
BECMG 1510/1512 22010KT
BECMG 1518/1520 VRB03KT
BECMG 1604/1606 FEW030 SCT080

Example: see airport list